Boone Observed Data For Previous 48 Hours

Caption
Day and Hour Reservoir Elevation (behind dam)* Tailwater Elevation (below dam)* Average Hourly Discharge*
11/17/2017 2 AM EST 1,352.93 1,260.60 0
11/17/2017 3 AM EST 1,353.02 1,260.36 0
11/17/2017 4 AM EST 1,353.10 1,260.38 0
11/17/2017 5 AM EST 1,353.09 1,263.04 793
11/17/2017 6 AM EST 1,353.05 1,263.25 3,542
11/17/2017 7 AM EST 1,352.96 1,263.24 3,526
11/17/2017 8 AM EST 1,352.88 1,263.31 3,388
11/17/2017 9 AM EST 1,352.81 1,263.25 3,538
11/17/2017 10 AM EST 1,352.74 1,263.31 3,193
11/17/2017 11 AM EST 1,352.64 1,263.24 3,199
11/17/2017 12 PM EST 1,352.57 1,263.26 3,541
11/17/2017 1 PM EST 1,352.61 1,260.44 62
11/17/2017 2 PM EST 1,352.70 1,260.42 0
11/17/2017 3 PM EST 1,352.76 1,260.29 0
11/17/2017 4 PM EST 1,352.83 1,260.28 0
11/17/2017 5 PM EST 1,352.88 1,260.28 0
11/17/2017 6 PM EST 1,352.87 1,262.59 194
11/17/2017 7 PM EST 1,352.89 1,263.31 3,456
11/17/2017 8 PM EST 1,352.84 1,263.28 3,296
11/17/2017 9 PM EST 1,352.79 1,263.28 3,322
11/17/2017 10 PM EST 1,352.83 1,260.46 68
11/17/2017 11 PM EST 1,352.88 1,260.50 0
11/18/2017 12 AM EST 1,352.93 1,260.30 0
11/18/2017 1 AM EST 1,352.96 1,260.29 0
11/18/2017 2 AM EST 1,353.05 1,260.28 0
11/18/2017 3 AM EST 1,353.14 1,260.26 0
11/18/2017 4 AM EST 1,353.14 1,262.50 190
11/18/2017 5 AM EST 1,353.14 1,263.37 3,433
11/18/2017 6 AM EST 1,353.10 1,263.29 3,443
11/18/2017 7 AM EST 1,353.03 1,263.37 3,273
11/18/2017 8 AM EST 1,353.05 1,260.64 71
11/18/2017 9 AM EST 1,353.11 1,260.39 0
11/18/2017 10 AM EST 1,353.13 1,260.33 0
11/18/2017 11 AM EST 1,353.17 1,260.32 0
11/18/2017 12 PM EST 1,353.21 1,260.29 0
11/18/2017 1 PM EST 1,353.23 1,260.28 0
11/18/2017 2 PM EST 1,353.27 1,260.27 0
11/18/2017 3 PM EST 1,353.30 1,260.25 0
11/18/2017 4 PM EST 1,353.34 1,260.25 0
11/18/2017 5 PM EST 1,353.36 1,260.24 0
11/18/2017 6 PM EST 1,353.42 1,260.24 0
11/18/2017 7 PM EST 1,353.39 1,262.69 213
11/18/2017 8 PM EST 1,353.34 1,263.31 3,370
11/18/2017 9 PM EST 1,353.29 1,263.12 3,616
11/18/2017 10 PM EST 1,353.19 1,263.32 3,347
11/18/2017 11 PM EST 1,353.10 1,263.32 3,458
11/19/2017 12 AM EST 1,353.05 1,263.27 3,446
11/19/2017 1 AM EST 1,353.05 1,260.74 74
11/19/2017 2 AM EST 1,353.11 1,260.68 0
11/19/2017 3 AM EST 1,353.16 1,260.36 0

Elevations are in feet above sea level. Discharges are in cubic feet per second and are reported at the end of the hour.